Time;durP1;ratioP1;P1;durP2;ratioP2;P2;SDS_P1;SDS_P2;PMS_P1;PMS_P2;Temp;Humidity;BMP_temperature;BMP_pressure;BME280_temperature;BME280_humidity;BME280_pressure;Samples;Min_cycle;Max_cycle;Signal;HPM_P1;HPM_P2
2022/08/22 00:00:48;;;;;;;1.92;1.40;;;;;;;;;;5040214;28;20049;-69
2022/08/22 00:03:14;;;;;;;2.80;1.42;;;;;;;;;;5040913;28;20076;-69
2022/08/22 00:05:40;;;;;;;2.20;1.50;;;;;;;;;;5040059;28;20084;-69
2022/08/22 00:08:09;;;;;;;1.40;1.10;;;;;;;;;;5040186;28;20049;-69
2022/08/22 00:10:54;;;;;;;2.28;1.30;;;;;;;;;;5040767;28;20045;-69
2022/08/22 00:13:40;;;;;;;2.00;1.40;;;;;;;;;;5040335;28;20132;-69
2022/08/22 00:16:11;;;;;;;3.55;1.33;;;;;;;;;;5038202;28;20041;-69
2022/08/22 00:18:50;;;;;;;2.25;1.20;;;;;;;;;;5037042;28;20095;-69
2022/08/22 00:21:19;;;;;;;1.48;1.38;;;;;;;;;;5036984;28;20109;-69
2022/08/22 00:24:04;;;;;;;1.83;1.30;;;;;;;;;;5036971;28;20045;-69
2022/08/22 00:26:39;;;;;;;1.17;1.17;;;;;;;;;;5037525;28;20546;-69
2022/08/22 00:29:08;;;;;;;1.50;1.40;;;;;;;;;;5036854;28;20038;-69
2022/08/22 00:31:37;;;;;;;3.80;1.70;;;;;;;;;;5037096;28;20045;-69
2022/08/22 00:34:17;;;;;;;1.58;1.33;;;;;;;;;;5037077;28;20045;-69
2022/08/22 00:36:57;;;;;;;3.13;1.45;;;;;;;;;;5036973;28;20060;-69
2022/08/22 00:39:41;;;;;;;4.33;1.43;;;;;;;;;;5037519;28;20056;-69
2022/08/22 00:42:30;;;;;;;1.73;1.40;;;;;;;;;;5036798;28;20762;-69
2022/08/22 00:44:59;;;;;;;3.78;1.33;;;;;;;;;;5036827;28;20049;-69
2022/08/22 00:47:35;;;;;;;2.78;1.30;;;;;;;;;;5036821;28;20488;-69
2022/08/22 00:50:20;;;;;;;1.92;1.48;;;;;;;;;;5036639;28;20053;-69
2022/08/22 00:52:54;;;;;;;1.63;1.40;;;;;;;;;;5036695;28;20095;-69
2022/08/22 00:55:20;;;;;;;1.33;1.23;;;;;;;;;;5037284;28;20595;-69
2022/08/22 00:57:50;;;;;;;1.50;1.40;;;;;;;;;;5036520;28;20041;-69
2022/08/22 01:00:21;;;;;;;5.13;1.73;;;;;;;;;;5036232;28;20049;-69
2022/08/22 01:02:58;;;;;;;2.15;1.23;;;;;;;;;;5036431;28;20363;-69
2022/08/22 01:05:43;;;;;;;1.50;1.40;;;;;;;;;;5035741;28;20034;-69
2022/08/22 01:08:27;;;;;;;3.20;1.40;;;;;;;;;;5036684;28;20053;-69
2022/08/22 01:10:56;;;;;;;1.50;1.35;;;;;;;;;;5036951;28;20049;-69
2022/08/22 01:13:35;;;;;;;3.50;1.35;;;;;;;;;;5036264;28;20037;-69
2022/08/22 01:16:25;;;;;;;2.08;1.25;;;;;;;;;;5035990;28;20034;-69
2022/08/22 01:19:06;;;;;;;1.83;1.20;;;;;;;;;;5035764;28;20445;-69
2022/08/22 01:21:32;;;;;;;2.42;1.35;;;;;;;;;;5035860;28;20072;-69
2022/08/22 01:24:01;;;;;;;2.00;1.17;;;;;;;;;;5036057;28;20153;-69
2022/08/22 01:26:59;;;;;;;1.88;1.38;;;;;;;;;;5036391;28;20120;-69
2022/08/22 01:30:04;;;;;;;1.50;1.40;;;;;;;;;;5035998;28;20046;-69
2022/08/22 01:32:49;;;;;;;2.08;1.33;;;;;;;;;;4974512;28;20042;-69
2022/08/22 01:35:27;;;;;;;1.73;1.40;;;;;;;;;;4974389;28;20035;-69
2022/08/22 01:38:11;;;;;;;1.83;1.45;;;;;;;;;;5015844;28;20092;-69
2022/08/22 01:40:40;;;;;;;2.53;1.13;;;;;;;;;;5035469;28;20057;-69
2022/08/22 01:43:07;;;;;;;2.28;1.35;;;;;;;;;;5036305;28;20052;-69
2022/08/22 01:45:33;;;;;;;1.58;1.30;;;;;;;;;;5035386;28;20041;-69
2022/08/22 01:48:14;;;;;;;1.42;1.33;;;;;;;;;;5035678;28;20068;-69
2022/08/22 01:50:46;;;;;;;2.38;1.05;;;;;;;;;;5035612;28;20052;-69
2022/08/22 01:53:23;;;;;;;2.47;1.20;;;;;;;;;;5036021;28;20203;-69
2022/08/22 01:56:08;;;;;;;3.00;1.10;;;;;;;;;;5036043;28;20041;-69
2022/08/22 01:58:36;;;;;;;3.13;1.40;;;;;;;;;;5035208;28;20044;-69
2022/08/22 02:01:21;;;;;;;2.22;1.10;;;;;;;;;;5036089;28;20119;-69
2022/08/22 02:03:59;;;;;;;1.48;1.20;;;;;;;;;;5035195;28;20037;-69
2022/08/22 02:06:34;;;;;;;1.30;1.10;;;;;;;;;;5034819;28;20084;-69
2022/08/22 02:09:08;;;;;;;1.60;0.82;;;;;;;;;;5035537;28;20044;-69
2022/08/22 02:11:39;;;;;;;1.08;0.90;;;;;;;;;;5036062;28;20042;-69
2022/08/22 02:14:25;;;;;;;1.20;0.98;;;;;;;;;;5034818;28;20061;-69
2022/08/22 02:16:57;;;;;;;1.70;1.00;;;;;;;;;;5034804;28;20048;-69
2022/08/22 02:19:46;;;;;;;1.17;1.02;;;;;;;;;;5034988;28;20049;-69
2022/08/22 02:22:32;;;;;;;1.17;1.10;;;;;;;;;;5026966;28;20116;-69
2022/08/22 02:25:16;;;;;;;2.35;1.02;;;;;;;;;;5034721;28;20041;-69
2022/08/22 02:27:57;;;;;;;1.48;1.15;;;;;;;;;;5034888;28;20041;-69
2022/08/22 02:30:30;;;;;;;1.10;1.00;;;;;;;;;;5034954;28;20396;-69
2022/08/22 02:33:09;;;;;;;2.95;0.90;;;;;;;;;;5034941;28;20095;-69
2022/08/22 02:35:49;;;;;;;1.05;0.90;;;;;;;;;;5035363;28;20110;-69
2022/08/22 02:38:27;;;;;;;2.25;1.88;;;;;;;;;;5035233;28;20037;-69
2022/08/22 02:41:06;;;;;;;0.90;0.90;;;;;;;;;;5034208;28;20401;-69
2022/08/22 02:43:45;;;;;;;1.20;0.90;;;;;;;;;;5034758;28;20041;-69
2022/08/22 02:46:17;;;;;;;1.77;0.88;;;;;;;;;;5034939;28;20069;-69
2022/08/22 02:48:54;;;;;;;1.33;1.05;;;;;;;;;;5034660;28;20076;-69
2022/08/22 02:51:20;;;;;;;1.15;1.00;;;;;;;;;;5033814;28;20090;-69
2022/08/22 02:53:54;;;;;;;1.70;1.23;;;;;;;;;;5034515;28;20061;-69
2022/08/22 02:56:31;;;;;;;2.20;1.10;;;;;;;;;;5034623;28;20052;-69
2022/08/22 02:58:59;;;;;;;1.10;1.00;;;;;;;;;;5035346;28;20048;-69
2022/08/22 03:01:30;;;;;;;1.88;0.90;;;;;;;;;;5034460;28;20045;-69
2022/08/22 03:04:15;;;;;;;1.38;1.10;;;;;;;;;;5035042;28;20057;-69
2022/08/22 03:06:46;;;;;;;1.88;1.05;;;;;;;;;;5034198;28;20057;-69
2022/08/22 03:09:12;;;;;;;;;;;;;;;;;;5034613;28;20064;-69
2022/08/22 03:11:40;;;;;;;2.42;1.30;;;;;;;;;;5034455;28;19913;-69
2022/08/22 03:14:06;;;;;;;2.17;0.93;;;;;;;;;;5034363;28;20507;-69
2022/08/22 03:16:45;;;;;;;1.42;0.93;;;;;;;;;;5034428;28;20118;-69
2022/08/22 03:19:20;;;;;;;1.65;0.95;;;;;;;;;;5034691;28;20045;-69
2022/08/22 03:22:05;;;;;;;1.08;0.90;;;;;;;;;;5033608;28;20077;-69
2022/08/22 03:24:31;;;;;;;1.88;0.90;;;;;;;;;;5033958;28;20038;-69
2022/08/22 03:27:00;;;;;;;0.90;0.90;;;;;;;;;;5033959;28;20033;-69
2022/08/22 03:29:29;;;;;;;1.20;1.10;;;;;;;;;;5034179;28;20034;-69
2022/08/22 03:32:10;;;;;;;1.42;1.10;;;;;;;;;;5034204;28;20558;-69
2022/08/22 03:34:36;;;;;;;;;;;;;;;;;;5034630;28;20076;-69
2022/08/22 03:37:06;;;;;;;2.45;1.02;;;;;;;;;;5033788;28;20360;-69
2022/08/22 03:39:41;;;;;;;2.80;1.10;;;;;;;;;;5033987;28;20048;-69
2022/08/22 03:42:20;;;;;;;3.83;1.20;;;;;;;;;;5034737;28;20452;-69
2022/08/22 03:44:46;;;;;;;0.98;0.98;;;;;;;;;;5033555;28;20045;-69
2022/08/22 03:47:30;;;;;;;1.23;1.00;;;;;;;;;;5034422;28;20504;-69
2022/08/22 03:49:59;;;;;;;1.48;1.08;;;;;;;;;;5034112;28;20045;-69
2022/08/22 03:53:07;;;;;;;1.15;0.90;;;;;;;;;;5037886;28;20045;-69
2022/08/22 03:55:49;;;;;;;0.95;0.80;;;;;;;;;;4976557;28;20502;-69
2022/08/22 03:58:15;;;;;;;1.83;0.98;;;;;;;;;;4976062;28;20117;-69
2022/08/22 04:00:44;;;;;;;2.10;1.27;;;;;;;;;;5012579;28;20041;-69
2022/08/22 04:03:34;;;;;;;1.70;0.90;;;;;;;;;;5037576;28;20494;-69
2022/08/22 04:06:18;;;;;;;1.23;0.65;;;;;;;;;;5037586;28;20037;-69
2022/08/22 04:08:50;;;;;;;2.35;0.85;;;;;;;;;;5038174;28;20034;-69
2022/08/22 04:11:20;;;;;;;1.83;0.98;;;;;;;;;;5037117;28;20048;-69
2022/08/22 04:14:04;;;;;;;1.70;1.02;;;;;;;;;;5037398;28;20041;-69
2022/08/22 04:16:48;;;;;;;1.15;1.02;;;;;;;;;;5037504;28;20038;-69
2022/08/22 04:19:29;;;;;;;2.30;1.00;;;;;;;;;;5037390;28;20106;-69
2022/08/22 04:21:56;;;;;;;1.73;1.10;;;;;;;;;;5037042;28;20132;-69
2022/08/22 04:24:30;;;;;;;2.80;1.42;;;;;;;;;;5037359;28;20562;-69
2022/08/22 04:27:03;;;;;;;0.80;0.80;;;;;;;;;;5036994;28;20072;-69
2022/08/22 04:29:39;;;;;;;2.50;0.95;;;;;;;;;;5036843;28;20064;-69
2022/08/22 04:32:10;;;;;;;1.95;1.20;;;;;;;;;;5037749;28;20531;-69
2022/08/22 04:34:36;;;;;;;2.92;0.98;;;;;;;;;;5036527;28;20041;-69
2022/08/22 04:37:09;;;;;;;2.08;0.90;;;;;;;;;;5036673;28;20045;-69
2022/08/22 04:39:47;;;;;;;3.67;1.00;;;;;;;;;;5037509;28;20048;-69
2022/08/22 04:42:22;;;;;;;1.30;0.90;;;;;;;;;;5036837;28;20040;-69
2022/08/22 04:44:56;;;;;;;3.53;0.93;;;;;;;;;;5036967;28;20041;-69
2022/08/22 04:47:38;;;;;;;1.02;0.75;;;;;;;;;;5036838;28;20100;-69
2022/08/22 04:50:07;;;;;;;0.90;0.80;;;;;;;;;;5037354;28;20044;-69
2022/08/22 04:52:45;;;;;;;0.80;0.80;;;;;;;;;;5036784;28;20095;-69
2022/08/22 04:55:24;;;;;;;3.03;1.02;;;;;;;;;;5036096;28;20099;-69
2022/08/22 04:58:02;;;;;;;1.63;0.82;;;;;;;;;;5036080;28;20041;-69
2022/08/22 05:00:41;;;;;;;1.05;0.90;;;;;;;;;;5036536;28;20132;-69
2022/08/22 05:03:10;;;;;;;1.20;0.90;;;;;;;;;;5035906;28;20570;-69
2022/08/22 05:05:38;;;;;;;1.15;0.80;;;;;;;;;;5036410;28;20515;-69
2022/08/22 05:08:05;;;;;;;1.42;1.10;;;;;;;;;;5037116;28;20055;-69
2022/08/22 05:10:36;;;;;;;2.28;0.90;;;;;;;;;;5036429;28;20045;-69
2022/08/22 05:13:05;;;;;;;1.80;1.05;;;;;;;;;;5036600;28;20029;-69
2022/08/22 05:15:36;;;;;;;1.10;0.90;;;;;;;;;;5036016;28;20086;-69
2022/08/22 05:18:06;;;;;;;1.73;0.90;;;;;;;;;;5036595;28;20037;-69
2022/08/22 05:20:33;;;;;;;1.20;0.83;;;;;;;;;;5036203;28;20045;-69
2022/08/22 05:23:02;;;;;;;1.88;1.00;;;;;;;;;;5036732;28;20187;-69
2022/08/22 05:25:31;;;;;;;1.15;1.05;;;;;;;;;;5036705;28;20048;-69
2022/08/22 05:28:10;;;;;;;1.23;0.90;;;;;;;;;;5036567;28;20064;-69
2022/08/22 05:30:37;;;;;;;2.80;0.80;;;;;;;;;;5036033;28;20041;-69
2022/08/22 05:33:25;;;;;;;2.35;0.90;;;;;;;;;;5036236;28;20041;-69
2022/08/22 05:36:01;;;;;;;1.33;1.05;;;;;;;;;;5035933;28;20041;-69
2022/08/22 05:38:30;;;;;;;2.03;0.85;;;;;;;;;;5035586;28;20065;-69
2022/08/22 05:41:01;;;;;;;1.90;1.08;;;;;;;;;;5036070;28;20056;-69
2022/08/22 05:43:28;;;;;;;2.15;1.00;;;;;;;;;;5035797;28;20045;-69
2022/08/22 05:45:57;;;;;;;1.73;1.63;;;;;;;;;;5035737;28;20040;-69
2022/08/22 05:48:29;;;;;;;2.88;1.42;;;;;;;;;;5035928;28;20092;-69
2022/08/22 05:50:57;;;;;;;3.40;1.95;;;;;;;;;;5036011;28;20103;-69
2022/08/22 05:53:35;;;;;;;1.70;1.50;;;;;;;;;;5036159;28;20045;-69
2022/08/22 05:56:04;;;;;;;1.10;0.90;;;;;;;;;;5036437;28;20129;-69
2022/08/22 05:58:42;;;;;;;3.08;1.17;;;;;;;;;;5035392;28;20037;-69
2022/08/22 06:01:26;;;;;;;6.78;1.20;;;;;;;;;;5035651;28;20052;-69
2022/08/22 06:04:07;;;;;;;4.28;1.38;;;;;;;;;;5035911;28;20033;-69
2022/08/22 06:06:37;;;;;;;1.10;1.00;;;;;;;;;;5035084;28;20054;-69
2022/08/22 06:09:11;;;;;;;4.95;1.00;;;;;;;;;;5036152;28;20044;-69
2022/08/22 06:11:44;;;;;;;3.50;1.02;;;;;;;;;;5035290;28;20076;-69
2022/08/22 06:14:19;;;;;;;1.45;1.02;;;;;;;;;;5035188;28;20053;-69
2022/08/22 06:16:48;;;;;;;5.50;1.05;;;;;;;;;;5036285;28;20064;-69
2022/08/22 06:19:16;;;;;;;3.47;1.00;;;;;;;;;;5035378;28;20095;-69
2022/08/22 06:21:43;;;;;;;1.52;1.20;;;;;;;;;;5035135;28;20056;-69
2022/08/22 06:24:17;;;;;;;3.30;1.80;;;;;;;;;;5035577;28;20037;-69
2022/08/22 06:26:46;;;;;;;1.85;1.02;;;;;;;;;;5035023;28;20060;-69
2022/08/22 06:29:16;;;;;;;1.50;1.25;;;;;;;;;;5035166;28;20033;-69
2022/08/22 06:31:44;;;;;;;2.85;1.40;;;;;;;;;;5035351;28;20053;-69
2022/08/22 06:34:21;;;;;;;2.60;1.38;;;;;;;;;;5035451;28;20052;-69
2022/08/22 06:36:49;;;;;;;3.22;1.13;;;;;;;;;;5034690;28;20045;-69
2022/08/22 06:39:18;;;;;;;1.88;1.10;;;;;;;;;;5034716;28;20030;-69
2022/08/22 06:41:50;;;;;;;2.03;1.10;;;;;;;;;;5034675;28;20488;-69
2022/08/22 06:44:19;;;;;;;1.50;1.05;;;;;;;;;;5034690;28;20040;-69
2022/08/22 06:46:47;;;;;;;1.48;1.00;;;;;;;;;;5035630;28;20118;-69
2022/08/22 06:49:14;;;;;;;3.40;1.50;;;;;;;;;;5034906;28;20037;-69
2022/08/22 06:51:40;;;;;;;1.52;1.20;;;;;;;;;;5034656;28;20134;-69
2022/08/22 06:54:11;;;;;;;3.22;1.52;;;;;;;;;;5034659;28;20120;-69
2022/08/22 06:56:41;;;;;;;2.80;1.20;;;;;;;;;;5035271;28;20050;-69
2022/08/22 06:59:11;;;;;;;1.77;1.08;;;;;;;;;;5034871;28;20099;-69
2022/08/22 07:01:48;;;;;;;1.23;1.13;;;;;;;;;;5035549;28;20049;-69
2022/08/22 07:04:15;;;;;;;1.98;1.10;;;;;;;;;;5034554;28;20037;-69
2022/08/22 07:06:45;;;;;;;1.10;0.80;;;;;;;;;;5034290;28;20073;-69
2022/08/22 07:09:20;;;;;;;2.42;0.95;;;;;;;;;;5035205;28;20461;-69
2022/08/22 07:11:47;;;;;;;1.67;0.80;;;;;;;;;;5034471;28;20103;-69
2022/08/22 07:14:15;;;;;;;2.20;1.02;;;;;;;;;;5034348;28;20037;-69
2022/08/22 07:16:41;;;;;;;2.70;1.27;;;;;;;;;;5034074;28;20034;-69
2022/08/22 07:19:08;;;;;;;4.75;0.98;;;;;;;;;;5034015;28;20033;-69
2022/08/22 07:21:42;;;;;;;2.13;1.00;;;;;;;;;;5034109;28;20520;-69
2022/08/22 07:24:10;;;;;;;4.32;1.02;;;;;;;;;;5034289;28;20037;-69
2022/08/22 07:26:38;;;;;;;1.27;0.95;;;;;;;;;;5036175;28;20116;-69
2022/08/22 07:29:09;;;;;;;2.70;1.20;;;;;;;;;;5038272;28;20041;-69
2022/08/22 07:31:38;;;;;;;1.13;0.88;;;;;;;;;;5038458;28;20428;-69
2022/08/22 07:34:07;;;;;;;3.50;1.08;;;;;;;;;;5038181;28;20415;-69
2022/08/22 07:36:34;;;;;;;1.70;1.25;;;;;;;;;;5037687;28;20127;-69
2022/08/22 07:39:00;;;;;;;1.05;0.80;;;;;;;;;;5037785;28;20050;-69
2022/08/22 07:41:32;;;;;;;2.13;0.93;;;;;;;;;;5038349;28;20126;-69
2022/08/22 07:44:17;;;;;;;4.13;0.90;;;;;;;;;;5038371;28;20045;-69
2022/08/22 07:46:55;;;;;;;1.40;1.10;;;;;;;;;;5038340;28;20116;-69
2022/08/22 07:49:27;;;;;;;1.42;0.82;;;;;;;;;;5038004;28;20054;-69
2022/08/22 07:51:56;;;;;;;3.15;1.25;;;;;;;;;;5037665;28;20034;-69
2022/08/22 07:54:24;;;;;;;3.60;0.95;;;;;;;;;;5037733;28;20044;-69
2022/08/22 07:56:56;;;;;;;2.50;1.10;;;;;;;;;;5038629;28;20083;-69
2022/08/22 07:59:23;;;;;;;3.42;1.02;;;;;;;;;;5037155;28;20044;-69
2022/08/22 08:01:52;;;;;;;1.27;1.10;;;;;;;;;;5037310;28;20457;-69
2022/08/22 08:04:24;;;;;;;1.02;0.90;;;;;;;;;;5037594;28;20033;-69
2022/08/22 08:06:52;;;;;;;1.27;1.17;;;;;;;;;;5037402;28;20061;-69
2022/08/22 08:09:19;;;;;;;0.80;0.70;;;;;;;;;;5037854;28;20041;-69
2022/08/22 08:11:46;;;;;;;1.20;1.00;;;;;;;;;;5038094;28;20045;-69
2022/08/22 08:14:15;;;;;;;1.25;0.98;;;;;;;;;;5037931;28;20061;-69
2022/08/22 08:16:43;;;;;;;1.05;0.90;;;;;;;;;;5037699;28;20041;-69
2022/08/22 08:19:10;;;;;;;2.42;0.82;;;;;;;;;;5037598;28;20124;-69
2022/08/22 08:21:38;;;;;;;1.42;0.95;;;;;;;;;;5037369;28;20056;-69
2022/08/22 08:24:06;;;;;;;2.38;0.80;;;;;;;;;;5038342;28;20060;-69
2022/08/22 08:26:35;;;;;;;0.93;0.90;;;;;;;;;;5037214;28;20112;-69
2022/08/22 08:29:02;;;;;;;1.20;0.82;;;;;;;;;;5038004;28;20038;-69
2022/08/22 08:31:38;;;;;;;3.58;0.88;;;;;;;;;;5037188;28;20096;-69
2022/08/22 08:34:09;;;;;;;5.50;1.20;;;;;;;;;;5037333;28;20492;-69
2022/08/22 08:36:48;;;;;;;3.28;1.02;;;;;;;;;;5037073;28;20130;-69
2022/08/22 08:39:18;;;;;;;2.20;1.10;;;;;;;;;;5036668;28;20045;-69
2022/08/22 08:41:44;;;;;;;9.13;1.42;;;;;;;;;;5037799;28;20473;-69
2022/08/22 08:44:23;;;;;;;4.72;0.82;;;;;;;;;;5037257;28;20068;-69
2022/08/22 08:47:06;;;;;;;0.60;0.60;;;;;;;;;;5037242;28;20053;-69
2022/08/22 08:49:46;;;;;;;0.65;0.50;;;;;;;;;;5037124;28;20053;-69
2022/08/22 08:52:21;;;;;;;1.65;0.60;;;;;;;;;;5036744;28;20045;-69
2022/08/22 08:54:54;;;;;;;2.28;0.70;;;;;;;;;;5037049;28;20148;-69
2022/08/22 08:57:20;;;;;;;1.35;0.38;;;;;;;;;;5037524;28;20133;-69
2022/08/22 09:00:05;;;;;;;1.85;0.68;;;;;;;;;;5037143;28;20034;-69
2022/08/22 09:02:44;;;;;;;16.05;2.30;;;;;;;;;;5037461;28;20037;-69
2022/08/22 09:05:11;;;;;;;3.20;1.00;;;;;;;;;;5036992;28;20041;-69
2022/08/22 09:07:43;;;;;;;1.20;0.80;;;;;;;;;;5036846;28;20060;-69
2022/08/22 09:10:10;;;;;;;1.05;0.80;;;;;;;;;;5036164;28;20503;-69
2022/08/22 09:13:05;;;;;;;1.35;0.80;;;;;;;;;;5036474;28;20033;-69
2022/08/22 09:15:31;;;;;;;1.08;0.90;;;;;;;;;;5036041;28;20037;-69
2022/08/22 09:18:16;;;;;;;2.38;1.13;;;;;;;;;;5036591;28;20156;-69
2022/08/22 09:20:46;;;;;;;1.00;1.00;;;;;;;;;;5036786;28;20041;-69
2022/08/22 09:23:19;;;;;;;1.63;1.10;;;;;;;;;;5035824;28;20060;-69
2022/08/22 09:26:04;;;;;;;2.05;1.20;;;;;;;;;;5036368;28;20044;-69
2022/08/22 09:28:33;;;;;;;2.33;1.17;;;;;;;;;;5035745;28;20369;-69
2022/08/22 09:31:09;;;;;;;1.92;1.58;;;;;;;;;;5036038;28;20041;-69
2022/08/22 09:33:48;;;;;;;1.30;1.20;;;;;;;;;;5036528;28;20041;-69
2022/08/22 09:36:20;;;;;;;1.70;1.40;;;;;;;;;;5035193;28;20033;-69
2022/08/22 09:38:52;;;;;;;3.03;1.65;;;;;;;;;;5035905;28;20092;-69
2022/08/22 09:41:21;;;;;;;1.40;1.20;;;;;;;;;;5035521;28;20155;-69
2022/08/22 09:43:54;;;;;;;1.70;1.10;;;;;;;;;;5035795;28;20095;-69
2022/08/22 09:46:22;;;;;;;1.45;1.13;;;;;;;;;;5035784;28;20037;-69
2022/08/22 09:48:57;;;;;;;2.17;1.30;;;;;;;;;;5035469;28;20124;-69
2022/08/22 09:51:56;;;;;;;1.85;1.40;;;;;;;;;;5035149;28;20044;-69
2022/08/22 09:54:43;;;;;;;1.65;1.55;;;;;;;;;;5002107;28;20041;-69
2022/08/22 09:57:09;;;;;;;2.17;1.50;;;;;;;;;;5035267;28;20037;-69
2022/08/22 09:59:39;;;;;;;2.25;1.50;;;;;;;;;;5035472;28;20158;-69
2022/08/22 10:02:18;;;;;;;3.93;1.83;;;;;;;;;;5035407;28;20080;-69
2022/08/22 10:04:52;;;;;;;3.28;1.58;;;;;;;;;;5035166;28;20039;-69
2022/08/22 10:07:27;;;;;;;3.40;1.40;;;;;;;;;;5035582;28;20068;-69
2022/08/22 10:09:57;;;;;;;1.20;1.10;;;;;;;;;;5035604;28;20041;-69
2022/08/22 10:12:29;;;;;;;1.02;0.98;;;;;;;;;;5035787;28;20033;-69
2022/08/22 10:15:15;;;;;;;1.50;1.40;;;;;;;;;;5035505;28;20176;-69
2022/08/22 10:17:50;;;;;;;3.50;1.25;;;;;;;;;;5034849;28;20051;-69
2022/08/22 10:20:23;;;;;;;1.45;1.23;;;;;;;;;;5035202;28;20052;-69
2022/08/22 10:23:08;;;;;;;1.52;1.42;;;;;;;;;;5035464;28;20037;-69
2022/08/22 10:25:43;;;;;;;2.17;1.50;;;;;;;;;;5035630;28;20051;-69
2022/08/22 10:28:32;;;;;;;1.80;1.30;;;;;;;;;;5034938;28;20029;-69
2022/08/22 10:31:04;;;;;;;3.75;1.35;;;;;;;;;;5035592;28;20136;-69
2022/08/22 10:33:41;;;;;;;1.75;1.17;;;;;;;;;;5035205;28;20041;-69
2022/08/22 10:36:07;;;;;;;1.33;1.02;;;;;;;;;;5035238;28;20042;-69
2022/08/22 10:38:39;;;;;;;2.25;1.05;;;;;;;;;;5035052;28;20038;-69
2022/08/22 10:41:32;;;;;;;2.08;0.88;;;;;;;;;;5034697;28;20041;-69
2022/08/22 10:44:16;;;;;;;1.30;1.10;;;;;;;;;;5011907;28;20045;-69
2022/08/22 10:46:57;;;;;;;3.92;1.02;;;;;;;;;;5034708;28;20187;-69
2022/08/22 10:49:52;;;;;;;1.27;1.13;;;;;;;;;;5034739;28;20041;-69
2022/08/22 10:52:24;;;;;;;4.00;1.08;;;;;;;;;;5021659;28;20183;-69
2022/08/22 10:54:53;;;;;;;3.35;1.15;;;;;;;;;;5034944;28;20041;-69
2022/08/22 10:57:43;;;;;;;4.28;1.00;;;;;;;;;;5034949;28;20553;-69
2022/08/22 11:00:18;;;;;;;1.77;1.23;;;;;;;;;;5034899;28;20053;-69
2022/08/22 11:02:59;;;;;;;1.83;1.10;;;;;;;;;;5035351;28;20260;-69
2022/08/22 11:05:25;;;;;;;;;;;;;;;;;;5034788;28;20037;-69
2022/08/22 11:07:59;;;;;;;1.25;0.90;;;;;;;;;;5034561;28;19924;-69
2022/08/22 11:10:47;;;;;;;1.85;0.90;;;;;;;;;;5035060;28;20045;-69
2022/08/22 11:13:34;;;;;;;1.13;0.95;;;;;;;;;;5034355;28;20492;-69
2022/08/22 11:16:03;;;;;;;3.67;1.13;;;;;;;;;;5035015;28;20049;-69
2022/08/22 11:18:55;;;;;;;2.22;1.02;;;;;;;;;;5034073;28;20034;-69
2022/08/22 11:21:40;;;;;;;0.90;0.80;;;;;;;;;;5010657;28;20053;-69
2022/08/22 11:24:06;;;;;;;1.38;0.80;;;;;;;;;;5034801;28;20042;-69
2022/08/22 11:26:35;;;;;;;0.90;0.90;;;;;;;;;;5034652;28;20041;-69
2022/08/22 11:29:23;;;;;;;0.85;0.82;;;;;;;;;;5034278;28;20106;-69
2022/08/22 11:31:58;;;;;;;0.77;0.65;;;;;;;;;;5034587;28;20049;-69
2022/08/22 11:34:24;;;;;;;1.05;0.77;;;;;;;;;;5034556;28;20041;-69
2022/08/22 11:36:52;;;;;;;1.05;0.90;;;;;;;;;;5033887;28;20041;-69
2022/08/22 11:39:24;;;;;;;1.20;0.88;;;;;;;;;;5034458;28;20053;-69
2022/08/22 11:42:05;;;;;;;1.58;1.00;;;;;;;;;;5033727;28;20043;-69
2022/08/22 11:44:33;;;;;;;0.80;0.80;;;;;;;;;;5034445;28;20048;-69
2022/08/22 11:47:01;;;;;;;1.85;1.20;;;;;;;;;;5033527;28;20404;-69
2022/08/22 11:49:45;;;;;;;2.63;1.02;;;;;;;;;;5034128;28;20044;-69
2022/08/22 11:52:11;;;;;;;2.53;1.08;;;;;;;;;;5033635;28;20115;-69
2022/08/22 11:54:40;;;;;;;1.00;0.90;;;;;;;;;;5034335;28;20037;-69
2022/08/22 11:57:08;;;;;;;1.25;1.02;;;;;;;;;;5034211;28;20088;-69
2022/08/22 11:59:39;;;;;;;1.95;1.00;;;;;;;;;;5033736;28;20037;-69
2022/08/22 12:02:09;;;;;;;1.10;1.08;;;;;;;;;;5033662;28;20077;-69
2022/08/22 12:04:35;;;;;;;1.05;0.95;;;;;;;;;;5034011;28;20041;-69
2022/08/22 12:07:17;;;;;;;1.55;1.10;;;;;;;;;;5033942;28;20083;-69
2022/08/22 12:10:02;;;;;;;2.95;1.08;;;;;;;;;;5034253;28;20041;-69
2022/08/22 12:12:35;;;;;;;1.58;1.20;;;;;;;;;;5035303;28;20045;-69
2022/08/22 12:15:17;;;;;;;1.38;0.82;;;;;;;;;;5037794;28;20044;-69
2022/08/22 12:17:52;;;;;;;0.75;0.75;;;;;;;;;;5037163;28;20203;-69
2022/08/22 12:20:31;;;;;;;1.15;1.00;;;;;;;;;;5037505;28;20084;-69
2022/08/22 12:23:18;;;;;;;0.65;0.65;;;;;;;;;;5037799;28;20519;-69
2022/08/22 12:25:52;;;;;;;1.17;0.80;;;;;;;;;;5006202;28;20041;-69
2022/08/22 12:28:18;;;;;;;0.93;0.70;;;;;;;;;;5037874;28;20475;-69
2022/08/22 12:31:02;;;;;;;0.80;0.75;;;;;;;;;;5037257;28;20037;-69
2022/08/22 12:33:44;;;;;;;0.77;0.77;;;;;;;;;;5037156;28;20033;-69
2022/08/22 12:36:30;;;;;;;2.03;0.85;;;;;;;;;;5036630;28;20116;-69
2022/08/22 12:39:02;;;;;;;0.90;0.68;;;;;;;;;;5006194;28;20041;-69
2022/08/22 12:41:38;;;;;;;2.15;0.80;;;;;;;;;;5036670;28;20057;-69
2022/08/22 12:44:13;;;;;;;0.95;0.88;;;;;;;;;;5037211;28;20034;-69
2022/08/22 12:46:58;;;;;;;1.52;0.90;;;;;;;;;;5037119;28;20049;-69
2022/08/22 12:49:35;;;;;;;1.52;0.90;;;;;;;;;;5037630;28;20060;-69
2022/08/22 12:52:20;;;;;;;1.42;0.88;;;;;;;;;;5036732;28;20049;-69
2022/08/22 12:54:58;;;;;;;2.08;0.75;;;;;;;;;;5037540;28;20116;-69
2022/08/22 12:57:33;;;;;;;2.70;1.00;;;;;;;;;;5037336;28;20199;-69
2022/08/22 13:00:07;;;;;;;1.38;1.10;;;;;;;;;;5036869;28;20091;-69
2022/08/22 13:02:36;;;;;;;1.92;1.05;;;;;;;;;;5036954;28;20045;-69
2022/08/22 13:05:09;;;;;;;1.08;0.80;;;;;;;;;;5036091;28;20500;-69
2022/08/22 13:07:37;;;;;;;2.90;0.77;;;;;;;;;;5036417;28;20054;-69
2022/08/22 13:10:15;;;;;;;1.02;0.90;;;;;;;;;;5036712;28;20036;-69
2022/08/22 13:12:50;;;;;;;1.02;0.85;;;;;;;;;;5037282;28;20048;-69
2022/08/22 13:15:25;;;;;;;1.30;0.80;;;;;;;;;;5036466;28;20515;-69
2022/08/22 13:17:52;;;;;;;0.90;0.80;;;;;;;;;;5036627;28;20045;-69
2022/08/22 13:20:44;;;;;;;0.77;0.70;;;;;;;;;;5035988;28;20042;-69
2022/08/22 13:23:13;;;;;;;1.85;1.23;;;;;;;;;;5033367;28;20050;-69
2022/08/22 13:26:12;;;;;;;1.88;1.17;;;;;;;;;;5036698;28;20045;-69
2022/08/22 13:29:01;;;;;;;1.52;0.88;;;;;;;;;;5002894;28;20037;-69
2022/08/22 13:31:29;;;;;;;2.67;1.00;;;;;;;;;;5027980;28;20560;-69
2022/08/22 13:34:04;;;;;;;1.55;0.80;;;;;;;;;;5036261;28;20041;-69
2022/08/22 13:36:33;;;;;;;2.10;0.88;;;;;;;;;;5036205;28;20041;-69
2022/08/22 13:38:59;;;;;;;4.07;1.00;;;;;;;;;;5036675;28;20037;-69
2022/08/22 13:41:28;;;;;;;1.52;0.85;;;;;;;;;;5036388;28;20465;-69
2022/08/22 13:44:01;;;;;;;0.77;0.75;;;;;;;;;;5036072;28;20033;-69
2022/08/22 13:46:29;;;;;;;2.40;0.80;;;;;;;;;;5036398;28;20045;-69
2022/08/22 13:48:56;;;;;;;1.35;0.70;;;;;;;;;;5036821;28;20033;-69
2022/08/22 13:51:23;;;;;;;0.70;0.70;;;;;;;;;;5035834;28;20480;-69
2022/08/22 13:54:09;;;;;;;2.83;0.80;;;;;;;;;;5035528;28;20029;-69
2022/08/22 13:56:41;;;;;;;1.25;0.80;;;;;;;;;;5005214;28;20133;-69
2022/08/22 13:59:13;;;;;;;2.10;0.75;;;;;;;;;;5035551;28;20037;-69
2022/08/22 14:02:00;;;;;;;0.95;0.70;;;;;;;;;;5035740;28;20144;-69
2022/08/22 14:04:29;;;;;;;2.45;0.60;;;;;;;;;;5004721;28;20045;-69
2022/08/22 14:07:17;;;;;;;0.70;0.60;;;;;;;;;;5035182;28;20077;-69
2022/08/22 14:09:49;;;;;;;1.58;0.60;;;;;;;;;;5035806;28;20064;-69
2022/08/22 14:12:20;;;;;;;0.68;0.50;;;;;;;;;;5035588;28;20052;-69
2022/08/22 14:14:48;;;;;;;1.90;0.57;;;;;;;;;;5036132;28;20037;-69
2022/08/22 14:17:17;;;;;;;2.33;0.50;;;;;;;;;;5035469;28;20480;-69
2022/08/22 14:19:44;;;;;;;0.50;0.50;;;;;;;;;;5035468;28;20042;-69
2022/08/22 14:22:16;;;;;;;0.40;0.40;;;;;;;;;;5035231;28;20053;-69
2022/08/22 14:24:42;;;;;;;1.00;0.45;;;;;;;;;;5035032;28;20033;-69
2022/08/22 14:27:10;;;;;;;3.40;0.60;;;;;;;;;;5035701;28;20056;-69
2022/08/22 14:29:46;;;;;;;0.63;0.50;;;;;;;;;;5034967;28;20029;-69
2022/08/22 14:32:20;;;;;;;0.63;0.55;;;;;;;;;;5034900;28;20037;-69
2022/08/22 14:34:55;;;;;;;0.60;0.52;;;;;;;;;;5035285;28;20119;-69
2022/08/22 14:37:28;;;;;;;0.60;0.50;;;;;;;;;;5034731;28;20053;-69
2022/08/22 14:39:56;;;;;;;1.58;0.47;;;;;;;;;;5035131;28;20060;-69
2022/08/22 14:42:28;;;;;;;1.33;0.60;;;;;;;;;;5035408;28;20128;-69
2022/08/22 14:44:57;;;;;;;1.25;0.50;;;;;;;;;;5035632;28;20485;-69
2022/08/22 14:47:27;;;;;;;0.82;0.60;;;;;;;;;;5035313;28;20037;-69
2022/08/22 14:50:08;;;;;;;1.05;0.60;;;;;;;;;;5035349;28;20038;-69
2022/08/22 14:52:44;;;;;;;0.85;0.50;;;;;;;;;;5034671;28;20125;-69
2022/08/22 14:55:14;;;;;;;0.70;0.70;;;;;;;;;;5035468;28;20045;-69
2022/08/22 14:57:42;;;;;;;0.52;0.50;;;;;;;;;;5034599;28;20507;-69
2022/08/22 15:00:11;;;;;;;2.15;0.50;;;;;;;;;;5034772;28;20108;-69
2022/08/22 15:02:38;;;;;;;1.85;0.40;;;;;;;;;;5035016;28;20415;-69
2022/08/22 15:05:15;;;;;;;0.32;0.32;;;;;;;;;;5034460;28;20072;-69
2022/08/22 15:07:41;;;;;;;0.98;0.47;;;;;;;;;;5034529;28;20503;-69
2022/08/22 15:10:17;;;;;;;0.40;0.30;;;;;;;;;;5034483;28;20041;-69
2022/08/22 15:12:48;;;;;;;0.95;0.70;;;;;;;;;;5034788;28;20148;-69
2022/08/22 15:15:34;;;;;;;0.40;0.40;;;;;;;;;;5034533;28;20112;-69
2022/08/22 15:18:01;;;;;;;1.58;0.40;;;;;;;;;;5024817;28;20045;-69
2022/08/22 15:20:32;;;;;;;0.50;0.40;;;;;;;;;;5033771;28;20127;-69
2022/08/22 15:23:04;;;;;;;2.88;0.50;;;;;;;;;;5034893;28;20049;-69
2022/08/22 15:25:33;;;;;;;1.60;0.60;;;;;;;;;;5034324;28;20122;-69